createdAt,value
2018-03-07T00:02:11.786Z,95078.38
2018-03-07T00:04:39.303Z,95081.08
2018-03-07T00:07:06.999Z,95080.42
2018-03-07T00:09:34.510Z,95077.49
2018-03-07T00:12:02.027Z,95079.73
2018-03-07T00:14:29.570Z,95072.84
2018-03-07T00:16:57.086Z,95082.44
2018-03-07T00:19:24.928Z,95087.84
2018-03-07T00:21:52.443Z,95094.02
2018-03-07T00:24:19.987Z,95088.91
2018-03-07T00:26:47.502Z,95096.97
2018-03-07T00:29:15.230Z,95099.59
2018-03-07T00:31:42.749Z,95094.98
2018-03-07T00:34:10.269Z,95093.78
2018-03-07T00:36:37.802Z,95102.34
2018-03-07T00:39:05.323Z,95091.70
2018-03-07T00:41:33.125Z,95093.36
2018-03-07T00:44:00.643Z,95102.91
2018-03-07T00:46:28.162Z,95104.88
2018-03-07T00:48:55.710Z,95097.77
2018-03-07T00:51:23.225Z,95101.95
2018-03-07T00:53:50.796Z,95100.00
2018-03-07T00:56:18.318Z,95104.79
2018-03-07T00:58:45.846Z,95103.80
2018-03-07T01:01:13.393Z,95107.14
2018-03-07T01:03:40.905Z,95106.32
2018-03-07T01:06:08.475Z,95103.40
2018-03-07T01:08:35.993Z,95110.26
2018-03-07T01:11:03.511Z,95103.80
2018-03-07T01:13:31.090Z,95098.03
2018-03-07T01:15:58.598Z,95100.68
2018-03-07T01:18:26.305Z,95108.09
2018-03-07T01:20:53.815Z,95103.94
2018-03-07T01:23:21.331Z,95103.02
2018-03-07T01:25:48.878Z,95097.81
2018-03-07T01:28:16.460Z,95096.77
2018-03-07T01:30:44.022Z,95087.02
2018-03-07T01:33:11.538Z,95092.41
2018-03-07T01:35:39.049Z,95089.48
2018-03-07T01:38:06.585Z,95095.24
2018-03-07T01:40:34.094Z,95086.93
2018-03-07T01:43:01.659Z,95090.82
2018-03-07T01:45:29.181Z,95088.25
2018-03-07T01:47:56.703Z,95082.55
2018-03-07T01:50:24.249Z,95086.34
2018-03-07T01:52:51.764Z,95092.23
2018-03-07T01:55:19.334Z,95091.31
2018-03-07T01:57:46.866Z,95089.39
2018-03-07T02:00:14.374Z,95089.99
2018-03-07T02:02:41.922Z,95091.06
2018-03-07T02:05:09.436Z,95088.59
2018-03-07T02:07:36.987Z,95088.05
2018-03-07T02:10:04.506Z,95088.71
2018-03-07T02:12:32.027Z,95089.14
2018-03-07T02:14:59.571Z,95086.35
2018-03-07T02:17:27.096Z,95088.23
2018-03-07T02:19:54.872Z,95085.77
2018-03-07T02:22:22.393Z,95090.15
2018-03-07T02:24:49.915Z,95095.05
2018-03-07T02:27:17.463Z,95101.01
2018-03-07T02:29:44.986Z,95102.11
2018-03-07T02:32:12.641Z,95101.95
2018-03-07T02:34:40.166Z,95098.13
2018-03-07T02:37:07.681Z,95100.25
2018-03-07T02:39:35.244Z,95096.52
2018-03-07T02:42:02.770Z,95098.16
2018-03-07T02:44:30.417Z,95098.66
2018-03-07T02:46:57.935Z,95097.72
2018-03-07T02:49:25.493Z,95102.54
2018-03-07T02:51:53.021Z,95100.05
2018-03-07T02:54:20.538Z,95099.59
2018-03-07T02:56:48.462Z,95104.87
2018-03-07T02:59:15.974Z,95103.07
2018-03-07T03:01:43.491Z,95107.50
2018-03-07T03:04:11.066Z,95107.95
2018-03-07T03:06:38.580Z,95111.97
2018-03-07T03:09:06.373Z,95109.59
2018-03-07T03:11:33.938Z,95108.66
2018-03-07T03:14:01.554Z,95109.98
2018-03-07T03:16:29.095Z,95112.06
2018-03-07T03:18:56.605Z,95117.73
2018-03-07T03:21:24.574Z,95119.89
2018-03-07T03:23:52.094Z,95119.42
2018-03-07T03:26:19.622Z,95116.19
2018-03-07T03:28:47.166Z,95113.84
2018-03-07T03:31:14.677Z,95116.37
2018-03-07T03:33:42.393Z,95117.25
2018-03-07T03:36:09.911Z,95117.58
2018-03-07T03:38:37.430Z,95119.14
2018-03-07T03:41:04.971Z,95123.73
2018-03-07T03:43:32.491Z,95120.84
2018-03-07T03:46:00.044Z,95117.38
2018-03-07T03:48:27.566Z,95119.38
2018-03-07T03:50:55.095Z,95117.73
2018-03-07T03:53:22.634Z,95114.20
2018-03-07T03:55:50.162Z,95107.59
2018-03-07T03:58:17.862Z,95107.00
2018-03-07T04:00:45.370Z,95105.74
2018-03-07T04:03:12.894Z,95105.63
2018-03-07T04:05:40.464Z,95105.61
2018-03-07T04:08:08.343Z,95111.48
2018-03-07T04:10:36.174Z,95115.12
2018-03-07T04:13:03.686Z,95111.09
2018-03-07T04:15:31.268Z,95122.61
2018-03-07T04:17:58.805Z,95119.02
2018-03-07T04:20:26.331Z,95114.83
2018-03-07T04:22:53.884Z,95113.75
2018-03-07T04:25:21.405Z,95114.92
2018-03-07T04:27:48.935Z,95123.13
2018-03-07T04:30:16.478Z,95126.63
2018-03-07T04:32:44.020Z,95130.41
2018-03-07T04:35:11.571Z,95130.36
2018-03-07T04:37:39.096Z,95141.70
2018-03-07T04:40:06.617Z,95138.47
2018-03-07T04:42:34.153Z,95144.94
2018-03-07T04:45:01.682Z,95157.85
2018-03-07T04:47:29.246Z,95143.67
2018-03-07T04:49:56.760Z,95147.45
2018-03-07T04:52:24.271Z,95147.45
2018-03-07T04:54:51.848Z,95145.58
2018-03-07T04:57:20.379Z,95152.41
2018-03-07T04:59:47.927Z,95163.45
2018-03-07T05:02:15.444Z,95152.79
2018-03-07T05:04:42.955Z,95158.46
2018-03-07T05:07:10.505Z,95154.59
2018-03-07T05:09:38.232Z,95154.44
2018-03-07T05:12:06.002Z,95157.55
2018-03-07T05:14:33.551Z,95151.19
2018-03-07T05:17:01.069Z,95158.52
2018-03-07T05:19:28.630Z,95163.28
2018-03-07T05:21:56.154Z,95151.05
2018-03-07T05:24:23.920Z,95151.09
2018-03-07T05:26:51.415Z,95156.80
2018-03-07T05:29:18.935Z,95161.20
2018-03-07T05:31:46.479Z,95167.91
2018-03-07T05:34:14.000Z,95165.98
2018-03-07T05:36:41.877Z,95170.13
2018-03-07T05:39:09.387Z,95173.53
2018-03-07T05:41:36.909Z,95174.66
2018-03-07T05:44:04.450Z,95175.04
2018-03-07T05:46:31.962Z,95172.12
2018-03-07T05:48:59.497Z,95167.51
2018-03-07T05:51:27.047Z,95171.19
2018-03-07T05:53:54.573Z,95171.98
2018-03-07T05:56:22.134Z,95168.80
2018-03-07T05:58:49.653Z,95175.92
2018-03-07T06:01:17.198Z,95179.38
2018-03-07T06:03:44.709Z,95191.09
2018-03-07T06:06:12.223Z,95189.50
2018-03-07T06:08:39.857Z,95190.56
2018-03-07T06:11:07.366Z,95190.67
2018-03-07T06:13:34.922Z,95195.36
2018-03-07T06:16:02.439Z,95201.42
2018-03-07T06:18:29.951Z,95209.92
2018-03-07T06:20:57.492Z,95204.94
2018-03-07T06:23:25.014Z,95217.59
2018-03-07T06:25:52.647Z,95219.80
2018-03-07T06:28:20.154Z,95224.30
2018-03-07T06:30:47.854Z,95234.23
2018-03-07T06:33:15.454Z,95236.25
2018-03-07T06:35:44.546Z,95239.81
2018-03-07T06:38:12.087Z,95237.27
2018-03-07T06:40:39.605Z,95238.98
2018-03-07T06:43:07.114Z,95247.87
2018-03-07T06:45:34.786Z,95238.34
2018-03-07T06:48:03.208Z,95247.92
2018-03-07T06:50:31.576Z,95247.36
2018-03-07T06:52:59.110Z,95248.84
2018-03-07T06:55:26.627Z,95254.80
2018-03-07T06:57:54.210Z,95260.71
2018-03-07T07:00:21.726Z,95268.23
2018-03-07T07:02:49.518Z,95271.70
2018-03-07T07:05:17.027Z,95278.55
2018-03-07T07:07:44.546Z,95268.87
2018-03-07T07:10:12.090Z,95289.88
2018-03-07T07:12:39.602Z,95295.39
2018-03-07T07:15:07.307Z,95301.04
2018-03-07T07:17:34.823Z,95304.50
2018-03-07T07:20:02.344Z,95301.55
2018-03-07T07:22:29.906Z,95309.34
2018-03-07T07:24:57.422Z,95313.94
2018-03-07T07:27:25.162Z,95314.27
2018-03-07T07:29:52.651Z,95316.20
2018-03-07T07:32:20.186Z,95314.61
2018-03-07T07:34:47.725Z,95321.18
2018-03-07T07:37:15.234Z,95326.77
2018-03-07T07:39:42.912Z,95330.92
2018-03-07T07:42:10.794Z,95326.55
2018-03-07T07:44:39.214Z,95330.52
2018-03-07T07:47:07.036Z,95331.25
2018-03-07T07:49:35.573Z,95335.64
2018-03-07T07:52:04.191Z,95327.67
2018-03-07T07:54:31.861Z,95340.58
2018-03-07T07:56:59.457Z,95338.69
2018-03-07T07:59:27.294Z,95342.22
2018-03-07T08:01:55.110Z,95338.81
2018-03-07T08:04:23.538Z,95352.25
2018-03-07T08:06:51.134Z,95354.20
2018-03-07T08:09:18.949Z,95351.89
2018-03-07T08:11:46.770Z,95350.92
2018-03-07T08:14:14.802Z,95364.70
2018-03-07T08:16:42.401Z,95358.96
2018-03-07T08:19:09.929Z,95368.13
2018-03-07T08:21:37.555Z,95361.48
2018-03-07T08:24:05.971Z,95356.33
2018-03-07T08:26:34.133Z,95361.11
2018-03-07T08:29:02.530Z,95363.59
2018-03-07T08:31:30.069Z,95364.17
2018-03-07T08:33:57.579Z,95362.61
2018-03-07T08:36:25.114Z,95364.31
2018-03-07T08:38:52.629Z,95359.77
2018-03-07T08:41:20.381Z,95353.87
2018-03-07T08:43:47.906Z,95362.81
2018-03-07T08:46:15.419Z,95359.30
2018-03-07T08:48:42.951Z,95366.15
2018-03-07T08:51:10.459Z,95366.25
2018-03-07T08:53:38.015Z,95368.38
2018-03-07T08:56:05.523Z,95380.83
2018-03-07T08:58:33.038Z,95378.80
2018-03-07T09:01:00.591Z,95375.34
2018-03-07T09:03:28.107Z,95390.44
2018-03-07T09:05:55.671Z,95391.19
2018-03-07T09:08:23.194Z,95394.56
2018-03-07T09:10:50.742Z,95394.61
2018-03-07T09:13:18.287Z,95398.35
2018-03-07T09:15:45.811Z,95403.81
2018-03-07T09:18:13.410Z,95402.08
2018-03-07T09:20:40.924Z,95409.11
2018-03-07T09:23:08.445Z,95410.89
2018-03-07T09:25:35.990Z,95414.59
2018-03-07T09:28:03.511Z,95421.88
2018-03-07T09:30:31.466Z,95427.05
2018-03-07T09:32:59.973Z,95429.70
2018-03-07T09:35:27.541Z,95427.22
2018-03-07T09:37:55.102Z,95432.34
2018-03-07T09:40:22.611Z,95439.69
2018-03-07T09:42:50.394Z,95443.77
2018-03-07T09:45:17.922Z,95446.88
2018-03-07T09:47:45.430Z,95458.08
2018-03-07T09:50:12.975Z,95458.55
2018-03-07T09:52:40.550Z,95455.86
2018-03-07T09:55:08.110Z,95464.08
2018-03-07T09:57:35.623Z,95463.56
2018-03-07T10:00:03.134Z,95467.20
2018-03-07T10:02:30.675Z,95475.10
2018-03-07T10:04:58.191Z,95470.06
2018-03-07T10:07:25.886Z,95465.01
2018-03-07T10:09:53.398Z,95458.76
2018-03-07T10:12:20.917Z,95459.02
2018-03-07T10:14:48.482Z,95456.47
2018-03-07T10:17:16.010Z,95454.75
2018-03-07T10:19:43.986Z,95454.51
2018-03-07T10:22:11.494Z,95456.22
2018-03-07T10:24:39.006Z,95449.23
2018-03-07T10:27:06.546Z,95447.83
2018-03-07T10:29:34.054Z,95460.68
2018-03-07T10:32:01.617Z,95461.98
2018-03-07T10:34:29.143Z,95469.16
2018-03-07T10:36:56.665Z,95464.58
2018-03-07T10:39:24.214Z,95468.29
2018-03-07T10:41:51.755Z,95468.94
2018-03-07T10:44:19.322Z,95468.56
2018-03-07T10:46:46.845Z,95473.72
2018-03-07T10:49:14.359Z,95480.86
2018-03-07T10:51:41.898Z,95489.66
2018-03-07T10:54:09.434Z,95488.84
2018-03-07T10:56:37.174Z,95481.94
2018-03-07T10:59:04.697Z,95488.04
2018-03-07T11:01:32.219Z,95491.72
2018-03-07T11:03:59.775Z,95493.13
2018-03-07T11:06:27.292Z,95489.92
2018-03-07T11:08:54.839Z,95499.13
2018-03-07T11:11:22.362Z,95494.28
2018-03-07T11:13:49.945Z,95497.59
2018-03-07T11:16:17.467Z,95499.59
2018-03-07T11:18:44.989Z,95495.78
2018-03-07T11:21:12.554Z,95492.92
2018-03-07T11:23:41.063Z,95499.28
2018-03-07T11:26:08.587Z,95494.97
2018-03-07T11:28:36.212Z,95507.13
2018-03-07T11:31:03.722Z,95496.98
2018-03-07T11:33:31.308Z,95504.63
2018-03-07T11:35:58.809Z,95501.73
2018-03-07T11:38:26.319Z,95501.31
2018-03-07T11:40:53.861Z,95504.01
2018-03-07T11:43:21.369Z,95494.23
2018-03-07T11:45:48.934Z,95505.41
2018-03-07T11:48:16.450Z,95497.05
2018-03-07T11:50:43.962Z,95498.09
2018-03-07T11:53:11.569Z,95494.28
2018-03-07T11:55:39.077Z,95502.27
2018-03-07T11:58:06.788Z,95502.36
2018-03-07T12:00:34.302Z,95503.98
2018-03-07T12:03:01.823Z,95507.81
2018-03-07T12:05:29.367Z,95502.09
2018-03-07T12:07:56.878Z,95509.03
2018-03-07T12:10:25.919Z,95500.70
2018-03-07T12:12:53.430Z,95495.08
2018-03-07T12:15:20.937Z,95507.17
2018-03-07T12:17:48.474Z,95504.97
2018-03-07T12:20:15.990Z,95502.89
2018-03-07T12:22:43.534Z,95503.03
2018-03-07T12:25:11.083Z,95506.92
2018-03-07T12:27:38.602Z,95505.30
2018-03-07T12:30:06.155Z,95501.41
2018-03-07T12:32:34.603Z,95497.25
2018-03-07T12:35:02.273Z,95494.47
2018-03-07T12:37:29.785Z,95491.86
2018-03-07T12:39:57.314Z,95505.90
2018-03-07T12:42:24.887Z,95500.88
2018-03-07T12:44:52.402Z,95498.90
2018-03-07T12:47:19.955Z,95501.72
2018-03-07T12:49:47.467Z,95499.06
2018-03-07T12:55:05.466Z,95499.66
2018-03-07T12:57:33.161Z,95506.34
2018-03-07T13:00:00.963Z,95500.95
2018-03-07T13:02:28.500Z,95510.29
2018-03-07T13:04:56.074Z,95520.68
2018-03-07T13:07:24.460Z,95512.33
2018-03-07T13:09:51.983Z,95498.25
2018-03-07T13:12:20.091Z,95510.88
2018-03-07T13:14:47.616Z,95515.46
2018-03-07T13:17:15.130Z,95519.54
2018-03-07T13:19:42.872Z,95523.56
2018-03-07T13:22:10.424Z,95525.38
2018-03-07T13:24:38.189Z,95522.83
2018-03-07T13:27:05.989Z,95528.59
2018-03-07T13:29:33.826Z,95524.27
2018-03-07T13:32:01.589Z,95524.52
2018-03-07T13:34:29.250Z,95528.29
2018-03-07T13:36:56.829Z,95536.74
2018-03-07T13:39:24.487Z,95535.23
2018-03-07T13:41:52.087Z,95529.59
2018-03-07T13:44:19.886Z,95529.28
2018-03-07T13:46:47.662Z,95532.84
2018-03-07T13:49:15.788Z,95531.73
2018-03-07T13:51:43.600Z,95534.13
2018-03-07T13:54:12.392Z,95523.56
2018-03-07T13:56:39.967Z,95529.89
2018-03-07T13:59:07.594Z,95533.14
2018-03-07T14:01:35.577Z,95533.86
2018-03-07T14:04:03.444Z,95533.16
2018-03-07T14:06:31.018Z,95522.12
2018-03-07T14:08:58.870Z,95538.92
2018-03-07T14:11:26.403Z,95526.87
2018-03-07T14:13:54.079Z,95535.34
2018-03-07T14:16:21.591Z,95536.31
2018-03-07T14:18:49.192Z,95535.13
2018-03-07T14:21:16.848Z,95531.04
2018-03-07T14:23:44.400Z,95530.87
2018-03-07T14:26:11.961Z,95536.66
2018-03-07T14:28:39.630Z,95532.13
2018-03-07T14:31:07.262Z,95525.63
2018-03-07T14:33:34.897Z,95524.12
2018-03-07T14:36:02.739Z,95534.03
2018-03-07T14:38:30.490Z,95529.92
2018-03-07T14:40:58.574Z,95519.31
2018-03-07T14:43:26.748Z,95521.53
2018-03-07T14:45:54.999Z,95519.02
2018-03-07T14:48:22.576Z,95520.61
2018-03-07T14:50:50.379Z,95524.10
2018-03-07T14:53:18.070Z,95528.45
2018-03-07T14:55:45.858Z,95522.00
2018-03-07T14:58:13.537Z,95531.25
2018-03-07T15:00:41.096Z,95522.12
2018-03-07T15:03:09.147Z,95512.00
2018-03-07T15:05:36.884Z,95528.48
2018-03-07T15:08:04.501Z,95519.16
2018-03-07T15:10:32.207Z,95515.34
2018-03-07T15:12:59.955Z,95530.14
2018-03-07T15:15:27.851Z,95536.67
2018-03-07T15:17:55.547Z,95530.95
2018-03-07T15:20:23.401Z,95534.07
2018-03-07T15:22:51.279Z,95533.73
2018-03-07T15:25:19.250Z,95536.03
2018-03-07T15:27:47.217Z,95529.78
2018-03-07T15:30:14.980Z,95538.75
2018-03-07T15:32:42.839Z,95534.89
2018-03-07T15:35:10.615Z,95540.64
2018-03-07T15:37:38.686Z,95536.77
2018-03-07T15:40:06.552Z,95545.98
2018-03-07T15:42:34.417Z,95546.45
2018-03-07T15:45:02.791Z,95548.89
2018-03-07T15:47:30.619Z,95549.84
2018-03-07T15:49:58.531Z,95551.72
2018-03-07T15:52:26.394Z,95548.84
2018-03-07T15:54:56.530Z,95562.95
2018-03-07T15:57:24.089Z,95563.28
2018-03-07T15:59:52.144Z,95564.80
2018-03-07T16:02:20.011Z,95569.78
2018-03-07T16:04:47.894Z,95568.98
2018-03-07T16:07:15.564Z,95571.66
2018-03-07T16:09:44.020Z,95584.38
2018-03-07T16:12:12.091Z,95583.27
2018-03-07T16:14:39.856Z,95592.00
2018-03-07T16:17:08.143Z,95589.61
2018-03-07T16:19:36.061Z,95596.62
2018-03-07T16:22:03.966Z,95610.13
2018-03-07T16:24:31.934Z,95614.17
2018-03-07T16:26:59.802Z,95606.90
2018-03-07T16:29:27.771Z,95614.38
2018-03-07T16:31:55.520Z,95614.52
2018-03-07T16:34:23.402Z,95609.02
2018-03-07T16:36:51.882Z,95626.39
2018-03-07T16:39:19.910Z,95621.70
2018-03-07T16:41:48.639Z,95620.41
2018-03-07T16:44:16.506Z,95619.41
2018-03-07T16:46:44.496Z,95624.25
2018-03-07T16:49:12.460Z,95639.36
2018-03-07T16:51:40.355Z,95643.47
2018-03-07T16:54:08.278Z,95641.05
2018-03-07T16:56:36.113Z,95641.89
2018-03-07T16:59:04.501Z,95644.64
2018-03-07T17:01:32.392Z,95643.97
2018-03-07T17:04:00.260Z,95648.45
2018-03-07T17:06:28.532Z,95652.36
2018-03-07T17:08:56.593Z,95647.64
2018-03-07T17:11:25.394Z,95652.05
2018-03-07T17:13:53.356Z,95658.01
2018-03-07T17:16:21.331Z,95662.69
2018-03-07T17:18:49.504Z,95661.84
2018-03-07T17:21:19.336Z,95668.28
2018-03-07T17:23:47.390Z,95670.69
2018-03-07T17:26:15.561Z,95674.94
2018-03-07T17:28:43.969Z,95686.61
2018-03-07T17:31:11.908Z,95683.23
2018-03-07T17:33:39.780Z,95687.00
2018-03-07T17:36:07.643Z,95695.75
2018-03-07T17:38:35.404Z,95697.97
2018-03-07T17:41:03.272Z,95699.06
2018-03-07T17:43:31.241Z,95711.48
2018-03-07T17:45:59.108Z,95722.41
2018-03-07T17:48:26.686Z,95724.66
2018-03-07T17:50:54.434Z,95728.71
2018-03-07T17:53:22.146Z,95727.19
2018-03-07T17:55:50.046Z,95726.42
2018-03-07T17:58:17.722Z,95733.53
2018-03-07T18:00:45.486Z,95736.08
2018-03-07T18:03:13.357Z,95737.58
2018-03-07T18:05:41.085Z,95747.47
2018-03-07T18:08:09.211Z,95750.97
2018-03-07T18:10:37.056Z,95753.23
2018-03-07T18:13:05.024Z,95756.67
2018-03-07T18:15:32.889Z,95761.47
2018-03-07T18:18:00.675Z,95769.47
2018-03-07T18:20:28.727Z,95763.03
2018-03-07T18:22:56.593Z,95765.78
2018-03-07T18:25:24.255Z,95766.39
2018-03-07T18:27:52.120Z,95778.55
2018-03-07T18:30:20.090Z,95782.30
2018-03-07T18:32:48.316Z,95783.11
2018-03-07T18:35:16.016Z,95795.13
2018-03-07T18:37:43.895Z,95791.53
2018-03-07T18:40:11.965Z,95801.73
2018-03-07T18:42:39.934Z,95802.63
2018-03-07T18:45:08.109Z,95802.55
2018-03-07T18:47:37.206Z,95798.04
2018-03-07T18:50:05.790Z,95799.88
2018-03-07T18:52:33.919Z,95799.17
2018-03-07T18:55:04.503Z,95797.94
2018-03-07T18:57:33.381Z,95800.29
2018-03-07T19:00:01.258Z,95803.08
2018-03-07T19:02:29.935Z,95805.24
2018-03-07T19:04:57.901Z,95811.20
2018-03-07T19:07:25.869Z,95811.23
2018-03-07T19:09:54.146Z,95814.41
2018-03-07T19:12:21.978Z,95818.81
2018-03-07T19:14:49.980Z,95818.80
2018-03-07T19:17:17.954Z,95816.94
2018-03-07T19:19:46.950Z,95826.22
2018-03-07T19:22:15.295Z,95830.19
2018-03-07T19:24:44.835Z,95832.32
2018-03-07T19:27:12.897Z,95825.99
2018-03-07T19:29:40.866Z,95829.58
2018-03-07T19:32:08.938Z,95830.70
2018-03-07T19:34:37.526Z,95833.27
2018-03-07T19:37:05.388Z,95829.91
2018-03-07T19:39:33.766Z,95838.47
2018-03-07T19:42:01.735Z,95840.70
2018-03-07T19:44:30.069Z,95844.88
2018-03-07T19:46:57.979Z,95847.87
2018-03-07T19:49:25.949Z,95841.83
2018-03-07T19:51:53.815Z,95851.88
2018-03-07T19:54:22.159Z,95850.32
2018-03-07T19:56:50.573Z,95857.73
2018-03-07T19:59:18.645Z,95855.14
2018-03-07T20:01:47.534Z,95861.98
2018-03-07T20:04:15.503Z,95858.12
2018-03-07T20:06:43.985Z,95860.16
2018-03-07T20:09:11.953Z,95854.81
2018-03-07T20:11:39.818Z,95870.78
2018-03-07T20:14:08.198Z,95870.63
2018-03-07T20:16:39.750Z,95882.47
2018-03-07T20:19:07.720Z,95886.45
2018-03-07T20:21:36.449Z,95892.88
2018-03-07T20:24:05.194Z,95899.39
2018-03-07T20:26:34.187Z,95900.52
2018-03-07T20:29:03.077Z,95903.45
2018-03-07T20:31:31.361Z,95913.53
2018-03-07T20:34:01.006Z,95917.83
2018-03-07T20:36:29.032Z,95917.72
2018-03-07T20:38:56.897Z,95915.07
2018-03-07T20:41:24.867Z,95917.75
2018-03-07T20:43:53.450Z,95918.98
2018-03-07T20:46:21.727Z,95923.41
2018-03-07T20:48:49.803Z,95929.72
2018-03-07T20:51:17.767Z,95934.39
2018-03-07T20:53:48.214Z,95939.44
2018-03-07T20:56:16.471Z,95947.82
2018-03-07T20:58:45.718Z,95948.52
2018-03-07T21:01:13.635Z,95951.86
2018-03-07T21:03:42.016Z,95954.23
2018-03-07T21:06:10.003Z,95958.45
2018-03-07T21:08:38.788Z,95969.32
2018-03-07T21:11:06.951Z,95962.28
2018-03-07T21:13:35.017Z,95964.11
2018-03-07T21:16:02.985Z,95966.55
2018-03-07T21:18:30.852Z,95964.29
2018-03-07T21:20:59.580Z,95965.80
2018-03-07T21:23:28.244Z,95962.92
2018-03-07T21:25:56.912Z,95971.63
2018-03-07T21:28:24.880Z,95970.86
2018-03-07T21:30:52.747Z,95975.87
2018-03-07T21:33:22.348Z,95977.08
2018-03-07T21:35:50.443Z,95979.38
2018-03-07T21:38:18.393Z,95988.90
2018-03-07T21:40:46.395Z,95988.69
2018-03-07T21:43:14.945Z,95993.42
2018-03-07T21:45:42.913Z,95990.91
2018-03-07T21:48:11.292Z,95992.59
2018-03-07T21:50:39.159Z,96004.82
2018-03-07T21:53:07.053Z,95995.59
2018-03-07T21:55:34.994Z,96010.86
2018-03-07T21:58:03.372Z,96013.28
2018-03-07T22:00:31.241Z,96008.69
2018-03-07T22:02:59.019Z,96014.27
2018-03-07T22:05:26.972Z,96018.03
2018-03-07T22:07:54.735Z,96020.16
2018-03-07T22:10:22.635Z,96023.11
2018-03-07T22:12:50.435Z,96020.75
2018-03-07T22:15:18.560Z,96020.42
2018-03-07T22:17:46.473Z,96022.61
2018-03-07T22:20:14.169Z,96026.69
2018-03-07T22:22:42.076Z,96027.12
2018-03-07T22:25:09.630Z,96035.09
2018-03-07T22:27:37.157Z,96029.89
2018-03-07T22:30:04.704Z,96042.31
2018-03-07T22:32:32.215Z,96036.51
2018-03-07T22:34:59.767Z,96043.71
2018-03-07T22:37:27.280Z,96043.02
2018-03-07T22:39:54.928Z,96044.44
2018-03-07T22:42:22.471Z,96053.00
2018-03-07T22:44:49.981Z,96051.25
2018-03-07T22:47:17.767Z,96049.19
2018-03-07T22:49:45.277Z,96048.93
2018-03-07T22:52:12.782Z,96054.83
2018-03-07T22:54:40.330Z,96057.02
2018-03-07T22:57:07.870Z,96054.70
2018-03-07T22:59:35.433Z,96061.50
2018-03-07T23:02:02.939Z,96065.00
2018-03-07T23:04:30.447Z,96066.38
2018-03-07T23:06:57.983Z,96071.22
2018-03-07T23:09:26.484Z,96078.78
2018-03-07T23:11:54.433Z,96078.98
2018-03-07T23:14:21.976Z,96081.70
2018-03-07T23:16:49.491Z,96080.58
2018-03-07T23:19:17.058Z,96083.08
2018-03-07T23:21:44.566Z,96080.02
2018-03-07T23:24:12.286Z,96089.19
2018-03-07T23:26:39.808Z,96087.38
2018-03-07T23:29:07.694Z,96089.42
2018-03-07T23:31:35.242Z,96088.33
2018-03-07T23:34:02.750Z,96090.66
2018-03-07T23:36:30.290Z,96098.87
2018-03-07T23:38:57.794Z,96099.22
2018-03-07T23:41:25.400Z,96101.69
2018-03-07T23:43:52.940Z,96103.84
2018-03-07T23:46:20.454Z,96111.91
2018-03-07T23:48:48.007Z,96116.59
2018-03-07T23:51:15.518Z,96123.86
2018-03-07T23:53:43.022Z,96128.72
2018-03-07T23:56:10.552Z,96137.06
2018-03-07T23:58:38.079Z,96132.89
